createdAt,value
2018-04-17T00:00:04.807Z,14.83
2018-04-17T00:01:04.943Z,14.69
2018-04-17T00:02:05.079Z,14.74
2018-04-17T00:03:05.219Z,14.66
2018-04-17T00:04:05.401Z,14.69
2018-04-17T00:05:05.506Z,14.46
2018-04-17T00:06:05.633Z,14.46
2018-04-17T00:07:05.779Z,14.44
2018-04-17T00:08:05.938Z,14.40
2018-04-17T00:09:06.073Z,13.96
2018-04-17T00:10:06.216Z,13.78
2018-04-17T00:11:06.354Z,13.75
2018-04-17T00:12:06.504Z,13.76
2018-04-17T00:13:06.643Z,13.78
2018-04-17T00:14:06.782Z,13.67
2018-04-17T00:15:06.957Z,13.86
2018-04-17T00:16:07.081Z,13.96
2018-04-17T00:17:07.233Z,13.67
2018-04-17T00:18:07.378Z,13.80
2018-04-17T00:19:07.514Z,13.68
2018-04-17T00:20:07.661Z,13.47
2018-04-17T00:21:07.789Z,13.51
2018-04-17T00:22:07.957Z,13.71
2018-04-17T00:23:08.093Z,13.64
2018-04-17T00:24:08.238Z,13.67
2018-04-17T00:25:08.399Z,13.75
2018-04-17T00:26:08.527Z,13.85
2018-04-17T00:27:08.671Z,13.97
2018-04-17T00:28:08.805Z,13.93
2018-04-17T00:29:08.940Z,13.97
2018-04-17T00:30:09.080Z,14.11
2018-04-17T00:31:09.213Z,13.94
2018-04-17T00:32:09.354Z,14.08
2018-04-17T00:33:09.494Z,14.08
2018-04-17T00:34:09.634Z,14.19
2018-04-17T00:35:09.773Z,14.12
2018-04-17T00:36:09.908Z,14.22
2018-04-17T00:37:10.047Z,14.19
2018-04-17T00:38:10.188Z,14.21
2018-04-17T00:39:10.320Z,14.26
2018-04-17T00:40:10.459Z,14.22
2018-04-17T00:41:10.600Z,14.28
2018-04-17T00:42:10.741Z,14.33
2018-04-17T00:43:10.882Z,14.41
2018-04-17T00:44:11.022Z,14.30
2018-04-17T00:45:11.166Z,14.28
2018-04-17T00:46:11.369Z,14.30
2018-04-17T00:47:11.379Z,14.30
2018-04-17T00:48:11.519Z,14.18
2018-04-17T00:49:11.661Z,14.28
2018-04-17T00:50:11.799Z,14.12
2018-04-17T00:51:11.937Z,13.96
2018-04-17T00:52:12.074Z,14.00
2018-04-17T00:53:12.211Z,14.08
2018-04-17T00:54:12.345Z,14.11
2018-04-17T00:55:12.487Z,14.11
2018-04-17T00:56:12.623Z,14.16
2018-04-17T00:57:12.766Z,14.15
2018-04-17T00:58:12.897Z,14.05
2018-04-17T00:59:13.059Z,14.11
2018-04-17T01:00:13.197Z,14.01
2018-04-17T01:01:13.332Z,14.05
2018-04-17T01:02:13.473Z,14.19
2018-04-17T01:03:13.626Z,14.16
2018-04-17T01:04:13.753Z,14.12
2018-04-17T01:05:13.899Z,14.19
2018-04-17T01:06:14.062Z,14.05
2018-04-17T01:07:14.194Z,14.21
2018-04-17T01:08:14.329Z,14.26
2018-04-17T01:09:14.501Z,14.21
2018-04-17T01:10:14.629Z,14.09
2018-04-17T01:11:14.767Z,14.03
2018-04-17T01:12:14.911Z,13.91
2018-04-17T01:13:15.057Z,14.03
2018-04-17T01:14:15.190Z,14.08
2018-04-17T01:15:15.341Z,13.90
2018-04-17T01:16:15.486Z,14.00
2018-04-17T01:17:15.631Z,13.93
2018-04-17T01:18:15.770Z,14.12
2018-04-17T01:19:15.911Z,13.97
2018-04-17T01:20:16.070Z,14.01
2018-04-17T01:21:16.203Z,14.05
2018-04-17T01:22:16.340Z,14.21
2018-04-17T01:23:16.477Z,14.11
2018-04-17T01:24:16.661Z,14.21
2018-04-17T01:25:16.802Z,14.21
2018-04-17T01:26:16.933Z,14.15
2018-04-17T01:27:17.076Z,14.22
2018-04-17T01:28:17.232Z,14.19
2018-04-17T01:29:17.369Z,14.22
2018-04-17T01:30:17.525Z,14.28
2018-04-17T01:31:17.660Z,14.27
2018-04-17T01:32:17.826Z,14.22
2018-04-17T01:33:17.960Z,14.23
2018-04-17T01:34:18.099Z,14.23
2018-04-17T01:35:18.233Z,14.26
2018-04-17T01:36:18.372Z,14.22
2018-04-17T01:37:18.505Z,14.27
2018-04-17T01:38:18.652Z,14.15
2018-04-17T01:39:18.784Z,14.18
2018-04-17T01:40:18.919Z,14.16
2018-04-17T01:41:19.057Z,14.05
2018-04-17T01:42:19.195Z,13.88
2018-04-17T01:43:19.332Z,13.98
2018-04-17T01:44:19.467Z,14.00
2018-04-17T01:45:19.613Z,14.05
2018-04-17T01:46:19.749Z,14.05
2018-04-17T01:47:19.889Z,14.01
2018-04-17T01:48:20.024Z,14.04
2018-04-17T01:49:20.161Z,14.04
2018-04-17T01:50:20.296Z,14.12
2018-04-17T01:51:20.434Z,14.12
2018-04-17T01:52:20.570Z,14.19
2018-04-17T01:53:20.714Z,14.26
2018-04-17T01:54:20.849Z,14.26
2018-04-17T01:55:20.988Z,14.26
2018-04-17T01:56:21.125Z,14.23
2018-04-17T01:57:21.281Z,14.18
2018-04-17T01:58:21.428Z,14.23
2018-04-17T01:59:21.566Z,14.18
2018-04-17T02:00:21.709Z,14.18
2018-04-17T02:01:21.842Z,14.18
2018-04-17T02:02:21.981Z,14.13
2018-04-17T02:03:22.126Z,14.04
2018-04-17T02:04:22.261Z,14.19
2018-04-17T02:05:22.398Z,14.18
2018-04-17T02:06:22.543Z,14.28
2018-04-17T02:07:22.678Z,14.11
2018-04-17T02:08:22.810Z,14.16
2018-04-17T02:09:22.942Z,14.18
2018-04-17T02:10:23.104Z,14.27
2018-04-17T02:11:24.148Z,14.13
2018-04-17T02:12:23.299Z,14.11
2018-04-17T02:13:23.452Z,14.05
2018-04-17T02:14:23.637Z,14.09
2018-04-17T02:15:23.730Z,14.21
2018-04-17T02:16:23.896Z,14.09
2018-04-17T02:17:24.033Z,14.19
2018-04-17T02:18:24.169Z,14.09
2018-04-17T02:19:24.305Z,14.26
2018-04-17T02:20:24.485Z,14.09
2018-04-17T02:21:24.618Z,14.01
2018-04-17T02:22:24.752Z,14.15
2018-04-17T02:23:24.894Z,13.98
2018-04-17T02:24:25.049Z,14.04
2018-04-17T02:25:25.192Z,13.96
2018-04-17T02:26:25.324Z,13.97
2018-04-17T02:27:25.468Z,13.98
2018-04-17T02:28:25.626Z,14.05
2018-04-17T02:29:25.764Z,13.96
2018-04-17T02:30:25.900Z,13.96
2018-04-17T02:31:26.037Z,14.05
2018-04-17T02:32:26.189Z,14.00
2018-04-17T02:33:26.321Z,14.12
2018-04-17T02:34:26.459Z,14.03
2018-04-17T02:35:26.601Z,13.98
2018-04-17T02:36:26.761Z,13.98
2018-04-17T02:37:26.882Z,13.93
2018-04-17T02:38:27.018Z,14.00
2018-04-17T02:39:27.160Z,13.97
2018-04-17T02:40:27.295Z,13.97
2018-04-17T02:41:27.428Z,14.00
2018-04-17T02:42:27.576Z,14.00
2018-04-17T02:43:27.717Z,13.97
2018-04-17T02:44:27.862Z,13.91
2018-04-17T02:45:27.996Z,13.97
2018-04-17T02:46:28.134Z,13.94
2018-04-17T02:47:28.283Z,14.00
2018-04-17T02:48:28.410Z,13.94
2018-04-17T02:49:28.539Z,14.00
2018-04-17T02:50:28.680Z,14.04
2018-04-17T02:51:28.812Z,13.97
2018-04-17T02:52:28.948Z,13.85
2018-04-17T02:53:29.085Z,14.00
2018-04-17T02:54:29.225Z,13.94
2018-04-17T02:55:29.411Z,13.93
2018-04-17T02:56:29.552Z,13.96
2018-04-17T02:57:29.690Z,13.94
2018-04-17T02:58:29.839Z,13.97
2018-04-17T02:59:29.968Z,13.83
2018-04-17T03:00:30.105Z,13.86
2018-04-17T03:01:30.253Z,13.85
2018-04-17T03:02:30.376Z,13.85
2018-04-17T03:03:30.515Z,13.85
2018-04-17T03:04:30.655Z,13.83
2018-04-17T03:05:30.794Z,13.91
2018-04-17T03:06:30.930Z,13.76
2018-04-17T03:07:31.100Z,13.78
2018-04-17T03:08:31.252Z,13.82
2018-04-17T03:09:31.450Z,13.75
2018-04-17T03:10:31.543Z,13.80
2018-04-17T03:11:31.676Z,13.72
2018-04-17T03:12:31.814Z,13.75
2018-04-17T03:13:31.945Z,13.75
2018-04-17T03:14:32.087Z,13.76
2018-04-17T03:15:32.220Z,13.80
2018-04-17T03:16:32.361Z,13.76
2018-04-17T03:17:32.501Z,13.65
2018-04-17T03:18:32.636Z,13.73
2018-04-17T03:19:32.773Z,13.73
2018-04-17T03:20:32.918Z,13.63
2018-04-17T03:21:33.059Z,13.68
2018-04-17T03:22:33.198Z,13.64
2018-04-17T03:23:33.337Z,13.68
2018-04-17T03:24:33.496Z,13.78
2018-04-17T03:25:33.628Z,13.75
2018-04-17T03:26:33.765Z,13.68
2018-04-17T03:27:33.929Z,13.72
2018-04-17T03:28:34.063Z,13.79
2018-04-17T03:29:34.206Z,13.78
2018-04-17T03:30:34.341Z,13.67
2018-04-17T03:31:34.501Z,13.68
2018-04-17T03:32:34.630Z,13.67
2018-04-17T03:33:34.770Z,13.68
2018-04-17T03:34:34.918Z,13.65
2018-04-17T03:35:35.053Z,13.49
2018-04-17T03:36:35.189Z,13.11
2018-04-17T03:37:35.330Z,12.88
2018-04-17T03:38:35.508Z,12.72
2018-04-17T03:39:35.642Z,12.84
2018-04-17T03:40:35.785Z,12.86
2018-04-17T03:41:35.931Z,12.88
2018-04-17T03:42:36.076Z,12.91
2018-04-17T03:43:36.207Z,12.91
2018-04-17T03:44:36.347Z,12.83
2018-04-17T03:45:36.485Z,12.86
2018-04-17T03:46:36.617Z,12.90
2018-04-17T03:47:36.755Z,12.95
2018-04-17T03:48:36.902Z,12.88
2018-04-17T03:49:37.037Z,12.99
2018-04-17T03:50:37.209Z,13.02
2018-04-17T03:51:37.363Z,13.06
2018-04-17T03:52:37.505Z,13.14
2018-04-17T03:53:37.637Z,13.11
2018-04-17T03:54:37.812Z,13.13
2018-04-17T03:55:37.945Z,13.20
2018-04-17T03:56:38.097Z,13.16
2018-04-17T03:57:38.240Z,13.20
2018-04-17T03:58:38.383Z,13.27
2018-04-17T03:59:38.520Z,13.26
2018-04-17T04:00:38.654Z,13.19
2018-04-17T04:01:38.787Z,13.29
2018-04-17T04:02:38.945Z,13.24
2018-04-17T04:03:39.064Z,13.35
2018-04-17T04:04:39.200Z,13.36
2018-04-17T04:05:39.336Z,13.32
2018-04-17T04:06:39.548Z,13.26
2018-04-17T04:07:39.555Z,13.29
2018-04-17T04:08:39.710Z,13.24
2018-04-17T04:09:39.850Z,13.26
2018-04-17T04:10:39.991Z,13.21
2018-04-17T04:11:40.131Z,13.35
2018-04-17T04:12:40.277Z,13.29
2018-04-17T04:13:40.416Z,13.26
2018-04-17T04:14:40.554Z,13.30
2018-04-17T04:15:40.690Z,13.30
2018-04-17T04:16:40.829Z,13.29
2018-04-17T04:17:40.981Z,13.36
2018-04-17T04:18:41.121Z,13.39
2018-04-17T04:19:41.257Z,13.32
2018-04-17T04:20:41.406Z,13.36
2018-04-17T04:21:41.547Z,13.29
2018-04-17T04:22:41.682Z,13.29
2018-04-17T04:23:41.818Z,13.35
2018-04-17T04:24:41.951Z,13.29
2018-04-17T04:25:42.101Z,13.23
2018-04-17T04:26:42.237Z,13.30
2018-04-17T04:27:42.374Z,13.29
2018-04-17T04:28:42.505Z,13.30
2018-04-17T04:29:42.646Z,13.24
2018-04-17T04:30:42.779Z,13.21
2018-04-17T04:31:42.913Z,13.20
2018-04-17T04:32:43.048Z,13.24
2018-04-17T04:33:43.185Z,13.24
2018-04-17T04:34:43.325Z,13.13
2018-04-17T04:35:43.476Z,13.19
2018-04-17T04:36:43.608Z,13.13
2018-04-17T04:37:43.748Z,13.11
2018-04-17T04:38:43.899Z,13.11
2018-04-17T04:39:44.052Z,13.09
2018-04-17T04:40:44.197Z,13.09
2018-04-17T04:41:44.322Z,13.13
2018-04-17T04:42:44.467Z,13.08
2018-04-17T04:43:44.633Z,13.11
2018-04-17T04:44:44.763Z,13.19
2018-04-17T04:45:44.903Z,13.06
2018-04-17T04:46:45.075Z,13.20
2018-04-17T04:47:45.213Z,13.19
2018-04-17T04:48:45.344Z,13.14
2018-04-17T04:49:45.475Z,13.26
2018-04-17T04:50:45.614Z,13.23
2018-04-17T04:51:45.753Z,13.27
2018-04-17T04:52:45.938Z,13.17
2018-04-17T04:53:46.034Z,13.08
2018-04-17T04:54:46.163Z,13.20
2018-04-17T04:55:46.404Z,13.08
2018-04-17T04:56:46.454Z,13.17
2018-04-17T04:57:46.589Z,13.19
2018-04-17T04:58:46.728Z,13.08
2018-04-17T04:59:46.891Z,13.20
2018-04-17T05:00:47.023Z,13.23
2018-04-17T05:01:47.172Z,13.13
2018-04-17T05:02:47.305Z,13.19
2018-04-17T05:03:47.437Z,13.19
2018-04-17T05:04:47.624Z,13.16
2018-04-17T05:05:47.708Z,13.21
2018-04-17T05:06:47.842Z,13.17
2018-04-17T05:07:47.981Z,13.23
2018-04-17T05:08:48.124Z,13.19
2018-04-17T05:09:48.309Z,13.19
2018-04-17T05:10:48.399Z,13.09
2018-04-17T05:11:48.534Z,13.04
2018-04-17T05:12:48.726Z,13.04
2018-04-17T05:13:48.817Z,12.95
2018-04-17T05:14:48.953Z,12.96
2018-04-17T05:15:49.089Z,12.95
2018-04-17T05:16:49.231Z,12.86
2018-04-17T05:17:49.385Z,12.81
2018-04-17T05:18:49.523Z,12.95
2018-04-17T05:19:49.670Z,12.80
2018-04-17T05:20:49.799Z,12.69
2018-04-17T05:21:49.938Z,12.72
2018-04-17T05:22:50.076Z,12.63
2018-04-17T05:23:50.220Z,12.71
2018-04-17T05:24:50.353Z,12.88
2018-04-17T05:25:50.491Z,12.83
2018-04-17T05:26:50.631Z,12.88
2018-04-17T05:27:50.771Z,12.86
2018-04-17T05:28:50.909Z,13.02
2018-04-17T05:29:51.063Z,12.96
2018-04-17T05:30:51.195Z,12.90
2018-04-17T05:31:51.347Z,12.99
2018-04-17T05:32:51.537Z,12.99
2018-04-17T05:33:51.635Z,13.06
2018-04-17T05:34:51.773Z,13.06
2018-04-17T05:35:51.917Z,13.26
2018-04-17T05:36:52.178Z,13.29
2018-04-17T05:37:52.199Z,13.24
2018-04-17T05:38:52.345Z,13.20
2018-04-17T05:39:52.513Z,13.26
2018-04-17T05:40:52.646Z,13.23
2018-04-17T05:41:52.780Z,13.36
2018-04-17T05:42:52.922Z,13.17
2018-04-17T05:43:53.088Z,13.36
2018-04-17T05:44:53.207Z,13.32
2018-04-17T05:45:53.340Z,13.39
2018-04-17T05:46:53.503Z,13.36
2018-04-17T05:47:53.645Z,13.32
2018-04-17T05:48:53.772Z,13.47
2018-04-17T05:49:53.910Z,13.53
2018-04-17T05:50:54.068Z,13.51
2018-04-17T05:51:54.188Z,13.46
2018-04-17T05:52:54.320Z,13.53
2018-04-17T05:53:54.458Z,13.57
2018-04-17T05:54:54.632Z,13.64
2018-04-17T05:55:54.821Z,13.72
2018-04-17T05:56:54.889Z,13.68
2018-04-17T05:57:55.026Z,13.68
2018-04-17T05:58:55.164Z,13.68
2018-04-17T05:59:55.310Z,13.78
2018-04-17T06:00:55.456Z,13.83
2018-04-17T06:01:55.599Z,13.85
2018-04-17T06:02:55.738Z,13.88
2018-04-17T06:03:55.882Z,13.91
2018-04-17T06:04:56.021Z,13.97
2018-04-17T06:05:56.157Z,13.97
2018-04-17T06:06:56.295Z,14.04
2018-04-17T06:07:56.451Z,14.00
2018-04-17T06:08:56.591Z,14.05
2018-04-17T06:09:56.727Z,13.97
2018-04-17T06:10:56.861Z,14.11
2018-04-17T06:11:57.001Z,14.09
2018-04-17T06:12:57.143Z,14.05
2018-04-17T06:13:57.284Z,14.00
2018-04-17T06:14:57.435Z,14.04
2018-04-17T06:15:57.574Z,14.11
2018-04-17T06:16:57.712Z,14.11
2018-04-17T06:17:57.847Z,14.21
2018-04-17T06:18:57.994Z,14.00
2018-04-17T06:19:58.138Z,14.00
2018-04-17T06:20:58.275Z,13.85
2018-04-17T06:21:58.415Z,13.94
2018-04-17T06:22:58.558Z,13.91
2018-04-17T06:23:58.699Z,13.91
2018-04-17T06:24:58.836Z,14.04
2018-04-17T06:25:59.017Z,14.01
2018-04-17T06:26:59.116Z,14.04
2018-04-17T06:27:59.262Z,14.05
2018-04-17T06:28:59.395Z,13.97
2018-04-17T06:29:59.533Z,14.01
2018-04-17T06:30:59.666Z,14.22
2018-04-17T06:31:59.802Z,14.09
2018-04-17T06:32:59.941Z,14.15
2018-04-17T06:34:00.079Z,14.27
2018-04-17T06:35:00.265Z,14.23
2018-04-17T06:36:00.396Z,14.27
2018-04-17T06:37:00.542Z,14.19
2018-04-17T06:38:00.689Z,14.19
2018-04-17T06:39:00.830Z,14.38
2018-04-17T06:40:00.972Z,14.30
2018-04-17T06:41:01.110Z,14.36
2018-04-17T06:42:01.281Z,14.51
2018-04-17T06:43:01.386Z,14.38
2018-04-17T06:44:01.522Z,14.40
2018-04-17T06:45:01.664Z,14.38
2018-04-17T06:46:01.811Z,14.37
2018-04-17T06:47:01.949Z,14.36
2018-04-17T06:48:02.087Z,14.49
2018-04-17T06:49:02.223Z,14.52
2018-04-17T06:50:02.392Z,14.46
2018-04-17T06:51:02.531Z,14.46
2018-04-17T06:52:02.674Z,14.44
2018-04-17T06:53:02.806Z,14.52
2018-04-17T06:54:02.973Z,14.48
2018-04-17T06:55:03.108Z,14.64
2018-04-17T06:56:03.257Z,14.55
2018-04-17T06:57:03.419Z,14.61
2018-04-17T06:58:03.588Z,14.69
2018-04-17T06:59:03.694Z,14.74
2018-04-17T07:00:03.832Z,14.82
2018-04-17T07:01:03.972Z,14.74
2018-04-17T07:02:04.106Z,14.79
2018-04-17T07:03:04.248Z,14.79
2018-04-17T07:04:04.388Z,14.78
2018-04-17T07:05:04.529Z,14.85
2018-04-17T07:06:04.669Z,14.95
2018-04-17T07:07:04.813Z,14.86
2018-04-17T07:08:04.951Z,14.87
2018-04-17T07:09:05.092Z,14.95
2018-04-17T07:10:05.256Z,14.93
2018-04-17T07:11:06.222Z,14.99
2018-04-17T07:12:05.512Z,15.03
2018-04-17T07:13:05.680Z,15.01
2018-04-17T07:14:05.808Z,15.14
2018-04-17T07:15:05.972Z,15.11
2018-04-17T07:16:06.115Z,15.04
2018-04-17T07:17:06.296Z,15.11
2018-04-17T07:18:06.432Z,15.23
2018-04-17T07:19:06.575Z,15.15
2018-04-17T07:20:06.719Z,15.22
2018-04-17T07:21:06.859Z,15.23
2018-04-17T07:22:07.000Z,15.23
2018-04-17T07:23:07.137Z,15.32
2018-04-17T07:24:07.284Z,15.30
2018-04-17T07:25:07.418Z,15.36
2018-04-17T07:26:07.561Z,15.36
2018-04-17T07:27:07.731Z,15.40
2018-04-17T07:28:07.870Z,15.48
2018-04-17T07:29:08.006Z,15.50
2018-04-17T07:30:08.156Z,15.45
2018-04-17T07:31:08.291Z,15.50
2018-04-17T07:32:08.430Z,15.40
2018-04-17T07:33:08.568Z,15.50
2018-04-17T07:34:08.717Z,15.56
2018-04-17T07:35:08.862Z,15.59
2018-04-17T07:36:09.011Z,15.60
2018-04-17T07:37:09.151Z,15.72
2018-04-17T07:38:09.288Z,15.77
2018-04-17T07:39:09.430Z,15.83
2018-04-17T07:40:09.572Z,15.84
2018-04-17T07:41:09.720Z,15.85
2018-04-17T07:42:09.864Z,15.93
2018-04-17T07:43:10.015Z,15.91
2018-04-17T07:44:10.163Z,16.00
2018-04-17T07:45:10.303Z,16.02
2018-04-17T07:46:10.447Z,16.22
2018-04-17T07:47:10.583Z,16.22
2018-04-17T07:48:10.735Z,16.25
2018-04-17T07:49:10.877Z,16.26
2018-04-17T07:50:11.010Z,16.21
2018-04-17T07:51:11.153Z,16.28
2018-04-17T07:52:11.312Z,16.24
2018-04-17T07:53:11.444Z,16.39
2018-04-17T07:54:11.589Z,16.29
2018-04-17T07:55:11.730Z,16.37
2018-04-17T07:56:11.863Z,16.43
2018-04-17T07:57:12.023Z,16.40
2018-04-17T07:58:12.161Z,16.40
2018-04-17T07:59:12.302Z,16.46
2018-04-17T08:00:12.473Z,16.61
2018-04-17T08:01:12.606Z,16.57
2018-04-17T08:02:12.747Z,16.61
2018-04-17T08:03:12.923Z,16.77
2018-04-17T08:04:13.046Z,16.76
2018-04-17T08:05:13.186Z,16.77
2018-04-17T08:06:13.328Z,16.74
2018-04-17T08:07:13.494Z,16.82
2018-04-17T08:08:13.621Z,16.92
2018-04-17T08:09:13.759Z,16.95
2018-04-17T08:10:13.902Z,16.91
2018-04-17T08:11:14.062Z,16.98
2018-04-17T08:12:14.206Z,17.07
2018-04-17T08:13:14.338Z,17.13
2018-04-17T08:14:14.486Z,17.13
2018-04-17T08:15:14.627Z,17.25
2018-04-17T08:16:14.776Z,17.14
2018-04-17T08:17:14.926Z,17.27
2018-04-17T08:18:15.112Z,17.22
2018-04-17T08:19:15.230Z,17.24
2018-04-17T08:20:15.365Z,17.25
2018-04-17T08:21:15.501Z,17.27
2018-04-17T08:22:15.667Z,17.22
2018-04-17T08:23:15.804Z,17.22
2018-04-17T08:24:15.946Z,17.17
2018-04-17T08:25:16.115Z,17.19
2018-04-17T08:26:16.250Z,17.27
2018-04-17T08:27:16.392Z,17.32
2018-04-17T08:28:16.534Z,17.41
2018-04-17T08:29:16.690Z,17.47
2018-04-17T08:30:16.825Z,17.47
2018-04-17T08:31:16.973Z,17.52
2018-04-17T08:32:17.113Z,17.56
2018-04-17T08:33:17.252Z,17.66
2018-04-17T08:34:17.410Z,17.71
2018-04-17T08:35:17.539Z,17.75
2018-04-17T08:36:17.681Z,17.83
2018-04-17T08:37:17.820Z,17.88
2018-04-17T08:38:17.956Z,17.79
2018-04-17T08:39:18.101Z,17.86
2018-04-17T08:40:18.245Z,17.87
2018-04-17T08:41:18.385Z,17.94
2018-04-17T08:42:18.523Z,17.86
2018-04-17T08:43:18.674Z,17.90
2018-04-17T08:44:18.818Z,17.86
2018-04-17T08:45:18.962Z,17.97
2018-04-17T08:46:19.099Z,17.90
2018-04-17T08:47:19.246Z,17.84
2018-04-17T08:48:19.382Z,18.11
2018-04-17T08:49:19.525Z,18.21
2018-04-17T08:50:19.662Z,18.11
2018-04-17T08:51:19.806Z,18.11
2018-04-17T08:52:19.947Z,18.21
2018-04-17T08:53:20.086Z,18.36
2018-04-17T08:54:20.229Z,18.30
2018-04-17T08:55:20.371Z,18.30
2018-04-17T08:56:20.511Z,18.33
2018-04-17T08:57:20.655Z,18.38
2018-04-17T08:58:20.803Z,18.39
2018-04-17T08:59:20.982Z,18.39
2018-04-17T09:00:21.093Z,18.45
2018-04-17T09:01:21.239Z,18.46
2018-04-17T09:02:21.407Z,18.45
2018-04-17T09:03:21.542Z,18.51
2018-04-17T09:04:21.682Z,18.58
2018-04-17T09:05:21.823Z,18.45
2018-04-17T09:06:21.959Z,18.56
2018-04-17T09:07:22.095Z,18.61
2018-04-17T09:08:22.236Z,18.66
2018-04-17T09:09:22.371Z,18.56
2018-04-17T09:10:22.512Z,18.70
2018-04-17T09:11:22.678Z,18.74
2018-04-17T09:12:22.819Z,18.82
2018-04-17T09:13:22.951Z,18.78
2018-04-17T09:14:23.102Z,18.83
2018-04-17T09:15:23.272Z,18.97
2018-04-17T09:16:23.412Z,18.89
2018-04-17T09:17:24.218Z,18.96
2018-04-17T09:18:23.754Z,19.01
2018-04-17T09:19:23.875Z,19.16
2018-04-17T09:20:24.053Z,19.19
2018-04-17T09:21:24.195Z,19.19
2018-04-17T09:22:24.361Z,19.31
2018-04-17T09:23:24.500Z,19.39
2018-04-17T09:24:24.638Z,19.50
2018-04-17T09:25:24.781Z,19.41
2018-04-17T09:26:24.941Z,19.67
2018-04-17T09:27:25.080Z,19.74
2018-04-17T09:28:25.221Z,19.72
2018-04-17T09:29:25.408Z,19.82
2018-04-17T09:30:25.532Z,19.90
2018-04-17T09:31:25.677Z,19.96
2018-04-17T09:32:25.814Z,19.99
2018-04-17T09:33:26.007Z,20.07
2018-04-17T09:34:26.167Z,20.04
2018-04-17T09:35:26.275Z,20.14
2018-04-17T09:36:26.415Z,20.08
2018-04-17T09:37:26.585Z,20.19
2018-04-17T09:38:26.733Z,20.26
2018-04-17T09:39:26.863Z,20.30
2018-04-17T09:40:27.012Z,20.37
2018-04-17T09:41:27.235Z,20.33
2018-04-17T09:42:27.325Z,20.49
2018-04-17T09:43:27.462Z,20.48
2018-04-17T09:44:27.625Z,20.64
2018-04-17T09:45:27.759Z,20.58
2018-04-17T09:46:27.887Z,20.68
2018-04-17T09:47:28.050Z,20.60
2018-04-17T09:48:28.187Z,20.58
2018-04-17T09:49:28.332Z,20.68
2018-04-17T09:50:28.482Z,20.63
2018-04-17T09:51:28.625Z,20.71
2018-04-17T09:52:28.776Z,20.75
2018-04-17T09:53:28.909Z,20.68
2018-04-17T09:54:29.071Z,20.77
2018-04-17T09:55:29.203Z,20.83
2018-04-17T09:56:29.348Z,20.89
2018-04-17T09:57:29.492Z,20.86
2018-04-17T09:58:29.650Z,20.89
2018-04-17T09:59:29.793Z,20.92
2018-04-17T10:00:29.934Z,21.01
2018-04-17T10:01:30.077Z,21.16
2018-04-17T10:02:30.219Z,21.19
2018-04-17T10:03:30.377Z,21.34
2018-04-17T10:04:30.508Z,21.28
2018-04-17T10:05:30.651Z,21.35
2018-04-17T10:06:30.797Z,21.35
2018-04-17T10:07:30.936Z,21.47
2018-04-17T10:08:31.074Z,21.50
2018-04-17T10:09:31.222Z,21.60
2018-04-17T10:10:31.362Z,21.56
2018-04-17T10:11:31.516Z,21.60
2018-04-17T10:12:31.657Z,21.65
2018-04-17T10:13:31.805Z,21.78
2018-04-17T10:14:31.954Z,21.74
2018-04-17T10:15:32.094Z,21.48
2018-04-17T10:16:32.234Z,21.43
2018-04-17T10:17:32.379Z,21.41
2018-04-17T10:18:32.521Z,21.16
2018-04-17T10:19:32.666Z,21.29
2018-04-17T10:20:32.808Z,21.22
2018-04-17T10:21:32.950Z,21.34
2018-04-17T10:22:33.157Z,21.38
2018-04-17T10:23:33.235Z,21.50
2018-04-17T10:24:33.390Z,21.60
2018-04-17T10:25:33.533Z,21.69
2018-04-17T10:26:33.738Z,21.81
2018-04-17T10:27:33.762Z,21.81
2018-04-17T10:28:33.886Z,21.75
2018-04-17T10:29:34.036Z,21.84
2018-04-17T10:30:34.184Z,21.82
2018-04-17T10:31:34.321Z,21.96
2018-04-17T10:32:34.473Z,21.90
2018-04-17T10:33:34.616Z,21.97
2018-04-17T10:34:34.761Z,21.94
2018-04-17T10:35:34.900Z,21.73
2018-04-17T10:36:35.047Z,21.45
2018-04-17T10:37:35.195Z,21.34
2018-04-17T10:38:35.342Z,21.32
2018-04-17T10:39:35.485Z,21.25
2018-04-17T10:40:35.629Z,21.34
2018-04-17T10:41:35.773Z,21.37
2018-04-17T10:42:35.915Z,21.44
2018-04-17T10:43:36.053Z,21.55
2018-04-17T10:44:36.198Z,21.62
2018-04-17T10:45:36.364Z,21.80
2018-04-17T10:46:36.507Z,21.82
2018-04-17T10:47:36.655Z,21.91
2018-04-17T10:48:36.814Z,21.90
2018-04-17T10:49:36.946Z,22.06
2018-04-17T10:50:37.091Z,22.06
2018-04-17T10:51:37.241Z,22.01
2018-04-17T10:52:37.392Z,22.01
2018-04-17T10:53:37.538Z,22.16
2018-04-17T10:54:37.679Z,22.41
2018-04-17T10:55:37.843Z,22.71
2018-04-17T10:56:37.978Z,22.93
2018-04-17T10:57:38.131Z,23.33
2018-04-17T10:58:38.277Z,23.63
2018-04-17T10:59:38.447Z,23.79
2018-04-17T11:00:38.590Z,24.37
2018-04-17T11:01:38.734Z,25.12
2018-04-17T11:02:38.913Z,25.81
2018-04-17T11:03:39.062Z,26.56
2018-04-17T11:04:39.208Z,27.10
2018-04-17T11:05:39.363Z,26.93
2018-04-17T11:06:39.524Z,27.44
2018-04-17T11:07:39.679Z,27.70
2018-04-17T11:08:40.738Z,28.47
2018-04-17T11:09:39.911Z,28.47
2018-04-17T11:10:40.058Z,28.74
2018-04-17T11:11:40.208Z,29.28
2018-04-17T11:12:40.365Z,29.80
2018-04-17T11:13:40.516Z,30.29
2018-04-17T11:14:40.663Z,30.90
2018-04-17T11:15:40.817Z,30.73
2018-04-17T11:16:40.977Z,30.43
2018-04-17T11:17:41.125Z,29.36
2018-04-17T11:18:41.280Z,28.94
2018-04-17T11:19:41.430Z,28.98
2018-04-17T11:20:43.778Z,28.40
2018-04-17T11:21:41.805Z,28.42
2018-04-17T11:22:41.952Z,28.94
2018-04-17T11:23:42.110Z,28.71
2018-04-17T11:24:42.260Z,29.44
2018-04-17T11:25:42.403Z,30.10
2018-04-17T11:26:42.541Z,30.53
2018-04-17T11:27:42.697Z,31.15
2018-04-17T11:28:42.850Z,31.20
2018-04-17T11:29:43.017Z,30.65
2018-04-17T11:30:43.162Z,30.73
2018-04-17T11:31:43.321Z,30.36
2018-04-17T11:32:43.478Z,29.31
2018-04-17T11:33:43.622Z,29.18
2018-04-17T11:34:43.781Z,28.22
2018-04-17T11:35:43.937Z,28.34
2018-04-17T11:36:44.091Z,29.29
2018-04-17T11:37:44.245Z,29.15
2018-04-17T11:38:44.395Z,29.86
2018-04-17T11:39:44.546Z,30.32
2018-04-17T11:40:44.707Z,29.24
2018-04-17T11:41:44.861Z,29.63
2018-04-17T11:42:45.028Z,29.98
2018-04-17T11:43:45.178Z,29.80
2018-04-17T11:44:45.340Z,30.43
2018-04-17T11:45:45.494Z,30.80
2018-04-17T11:46:45.659Z,31.44
2018-04-17T11:47:45.803Z,31.08
2018-04-17T11:48:46.013Z,31.10
2018-04-17T11:49:46.106Z,31.04
2018-04-17T11:50:46.263Z,30.30
2018-04-17T11:51:46.414Z,29.73
2018-04-17T11:52:46.565Z,29.17
2018-04-17T11:53:46.713Z,28.53
2018-04-17T11:54:46.871Z,28.13
2018-04-17T11:55:47.030Z,28.83
2018-04-17T11:56:47.185Z,29.62
2018-04-17T11:57:47.337Z,30.35
2018-04-17T11:58:47.496Z,30.55
2018-04-17T11:59:47.647Z,30.35
2018-04-17T12:00:47.801Z,30.36
2018-04-17T12:01:47.945Z,30.95
2018-04-17T12:02:48.103Z,30.82
2018-04-17T12:03:48.250Z,30.73
2018-04-17T12:04:48.401Z,30.45
2018-04-17T12:05:48.550Z,31.07
2018-04-17T12:06:48.702Z,31.30
2018-04-17T12:07:48.854Z,31.10
2018-04-17T12:08:49.011Z,31.56
2018-04-17T12:09:49.188Z,31.26
2018-04-17T12:10:49.345Z,30.62
2018-04-17T12:11:49.510Z,30.89
2018-04-17T12:12:49.661Z,31.38
2018-04-17T12:13:49.815Z,31.76
2018-04-17T12:14:49.969Z,32.04
2018-04-17T12:15:50.176Z,32.13
2018-04-17T12:16:50.297Z,32.11
2018-04-17T12:17:50.445Z,32.28
2018-04-17T12:18:50.590Z,32.75
2018-04-17T12:19:50.765Z,33.03
2018-04-17T12:20:50.916Z,33.33
2018-04-17T12:21:51.076Z,33.57
2018-04-17T12:22:51.232Z,33.58
2018-04-17T12:23:51.376Z,33.71
2018-04-17T12:24:51.522Z,33.86
2018-04-17T12:25:51.677Z,33.93
2018-04-17T12:26:51.834Z,34.04
2018-04-17T12:27:51.969Z,34.23
2018-04-17T12:28:52.754Z,33.22
2018-04-17T12:29:52.327Z,32.09
2018-04-17T12:30:52.476Z,30.70
2018-04-17T12:31:52.625Z,29.93
2018-04-17T12:32:52.783Z,29.34
2018-04-17T12:33:52.989Z,28.89
2018-04-17T12:34:53.139Z,28.57
2018-04-17T12:35:53.286Z,28.16
2018-04-17T12:36:53.437Z,27.50
2018-04-17T12:37:54.246Z,28.01
2018-04-17T12:38:53.780Z,28.50
2018-04-17T12:39:53.956Z,29.00
2018-04-17T12:40:54.103Z,29.19
2018-04-17T12:41:54.250Z,29.62
2018-04-17T12:42:54.401Z,30.18
2018-04-17T12:43:54.552Z,30.68
2018-04-17T12:44:54.793Z,31.07
2018-04-17T12:45:54.808Z,31.44
2018-04-17T12:46:55.067Z,31.59
2018-04-17T12:47:55.147Z,31.54
2018-04-17T12:48:55.299Z,31.74
2018-04-17T12:49:55.484Z,31.91
2018-04-17T12:50:55.628Z,31.70
2018-04-17T12:51:55.781Z,31.24
2018-04-17T12:52:55.967Z,31.45
2018-04-17T12:53:56.115Z,31.30